createdAt,value
2023-02-16T00:01:46.417Z,58.08
2023-02-16T00:04:19.467Z,48.72
2023-02-16T00:06:47.570Z,52.33
2023-02-16T00:09:16.173Z,55.15
2023-02-16T00:12:02.279Z,56.22
2023-02-16T00:14:30.730Z,54.10
2023-02-16T00:17:00.720Z,57.63
2023-02-16T00:19:31.244Z,62.03
2023-02-16T00:22:00.887Z,58.20
2023-02-16T00:24:30.477Z,62.78
2023-02-16T00:26:59.670Z,58.03
2023-02-16T00:29:30.784Z,58.30
2023-02-16T00:32:02.222Z,55.83
2023-02-16T00:34:33.536Z,65.18
2023-02-16T00:37:05.054Z,62.55
2023-02-16T00:39:33.668Z,62.10
2023-02-16T00:42:04.328Z,54.50
2023-02-16T00:44:35.113Z,54.72
2023-02-16T00:47:16.342Z,61.08
2023-02-16T00:49:44.816Z,66.82
2023-02-16T00:52:28.666Z,63.17
2023-02-16T00:54:57.229Z,66.10
2023-02-16T00:57:26.880Z,60.33
2023-02-16T01:00:00.803Z,60.20
2023-02-16T01:02:30.781Z,59.78
2023-02-16T01:04:59.070Z,62.50
2023-02-16T01:07:44.624Z,63.20
2023-02-16T01:10:30.949Z,58.78
2023-02-16T01:12:59.811Z,57.15
2023-02-16T01:15:28.530Z,55.58
2023-02-16T01:17:57.932Z,55.92
2023-02-16T01:20:27.658Z,57.55
2023-02-16T01:22:55.797Z,57.25
2023-02-16T01:25:24.229Z,55.40
2023-02-16T01:27:54.488Z,57.67
2023-02-16T01:30:24.972Z,59.97
2023-02-16T01:32:53.803Z,54.90
2023-02-16T01:35:25.286Z,60.92
2023-02-16T01:37:53.377Z,53.55
2023-02-16T01:40:31.999Z,56.88
2023-02-16T01:43:05.014Z,58.75
2023-02-16T01:45:36.734Z,54.70
2023-02-16T01:48:06.992Z,57.97
2023-02-16T01:50:49.817Z,54.55
2023-02-16T01:53:23.286Z,55.70
2023-02-16T01:55:56.760Z,62.35
2023-02-16T01:58:34.777Z,56.97
2023-02-16T02:04:27.226Z,58.35
2023-02-16T02:06:56.721Z,57.78
2023-02-16T02:09:30.224Z,53.10
2023-02-16T02:12:05.454Z,50.17
2023-02-16T02:14:38.675Z,51.03
2023-02-16T02:17:09.819Z,55.13
2023-02-16T02:19:47.501Z,53.15
2023-02-16T02:23:12.838Z,52.70
2023-02-16T02:26:14.375Z,54.75
2023-02-16T02:28:52.518Z,51.53
2023-02-16T02:31:31.567Z,54.72
2023-02-16T02:34:08.480Z,46.85
2023-02-16T02:36:41.181Z,49.28
2023-02-16T02:39:25.031Z,54.17
2023-02-16T02:42:07.952Z,47.50
2023-02-16T02:44:55.636Z,49.47
2023-02-16T02:47:24.094Z,51.10
2023-02-16T02:49:53.317Z,54.90
2023-02-16T02:52:23.286Z,52.88
2023-02-16T02:55:09.499Z,51.35
2023-02-16T02:57:59.459Z,52.50
2023-02-16T03:00:43.718Z,51.67
2023-02-16T03:03:16.522Z,53.08
2023-02-16T03:05:47.336Z,50.47
2023-02-16T03:08:18.894Z,52.00
2023-02-16T03:11:10.482Z,47.53
2023-02-16T03:13:41.385Z,51.05
2023-02-16T03:16:14.860Z,55.08
2023-02-16T03:19:02.290Z,51.67
2023-02-16T03:21:48.424Z,48.13
2023-02-16T03:24:40.281Z,47.53
2023-02-16T03:27:28.068Z,48.70
2023-02-16T03:29:57.951Z,46.75
2023-02-16T03:32:28.086Z,49.17
2023-02-16T03:34:56.177Z,53.63
2023-02-16T03:37:24.998Z,48.60
2023-02-16T03:40:10.839Z,54.10
2023-02-16T03:42:38.972Z,46.53
2023-02-16T03:45:08.114Z,53.40
2023-02-16T03:47:37.544Z,52.50
2023-02-16T03:50:06.507Z,51.05
2023-02-16T03:52:34.558Z,52.05
2023-02-16T03:55:02.803Z,53.20
2023-02-16T03:57:31.048Z,52.28
2023-02-16T03:59:59.564Z,55.33
2023-02-16T04:02:28.676Z,45.70
2023-02-16T04:04:58.258Z,53.83
2023-02-16T04:07:26.538Z,53.22
2023-02-16T04:09:55.028Z,53.03
2023-02-16T04:12:37.155Z,53.10
2023-02-16T04:15:07.153Z,53.53
2023-02-16T04:17:35.403Z,50.70
2023-02-16T04:20:06.164Z,50.63
2023-02-16T04:22:34.292Z,51.40
2023-02-16T04:25:02.510Z,49.90
2023-02-16T04:27:30.714Z,47.90
2023-02-16T04:29:58.947Z,55.17
2023-02-16T04:32:27.315Z,56.17
2023-02-16T04:34:55.650Z,57.03
2023-02-16T04:37:25.154Z,56.80
2023-02-16T04:39:53.476Z,55.40
2023-02-16T04:42:21.570Z,57.35
2023-02-16T04:44:49.811Z,56.78
2023-02-16T04:47:18.164Z,54.58
2023-02-16T04:49:48.070Z,55.25
2023-02-16T04:52:18.340Z,53.22
2023-02-16T04:54:47.835Z,52.42
2023-02-16T04:57:16.556Z,50.67
2023-02-16T04:59:44.961Z,54.50
2023-02-16T05:02:13.107Z,58.28
2023-02-16T05:04:42.142Z,58.92
2023-02-16T05:07:10.322Z,58.13
2023-02-16T05:09:38.534Z,55.00
2023-02-16T05:12:26.398Z,58.95
2023-02-16T05:14:54.488Z,54.97
2023-02-16T05:17:25.637Z,60.28
2023-02-16T05:19:55.674Z,54.38
2023-02-16T05:22:23.860Z,59.55
2023-02-16T05:24:52.030Z,57.10
2023-02-16T05:27:23.386Z,63.13
2023-02-16T05:29:52.120Z,57.30
2023-02-16T05:32:20.518Z,54.90
2023-02-16T05:34:49.131Z,63.85
2023-02-16T05:37:18.830Z,56.97
2023-02-16T05:39:47.163Z,56.05
2023-02-16T05:42:15.303Z,56.63
2023-02-16T05:44:44.721Z,63.35
2023-02-16T05:47:12.961Z,59.72
2023-02-16T05:49:41.101Z,61.08
2023-02-16T05:52:09.331Z,57.00
2023-02-16T05:54:37.411Z,59.97
2023-02-16T05:57:05.584Z,58.13
2023-02-16T05:59:33.835Z,54.75
2023-02-16T06:02:03.462Z,55.90
2023-02-16T06:04:32.535Z,57.80
2023-02-16T06:07:00.558Z,51.47
2023-02-16T06:09:29.034Z,55.90
2023-02-16T06:11:57.172Z,53.22
2023-02-16T06:14:25.609Z,54.90
2023-02-16T06:16:53.971Z,55.45
2023-02-16T06:19:23.415Z,58.80
2023-02-16T06:21:51.719Z,56.13
2023-02-16T06:24:20.114Z,54.30
2023-02-16T06:26:48.168Z,53.90
2023-02-16T06:29:16.510Z,54.20
2023-02-16T06:31:44.729Z,52.63
2023-02-16T06:34:13.107Z,53.22
2023-02-16T06:36:42.933Z,54.38
2023-02-16T06:39:11.146Z,56.35
2023-02-16T06:41:40.673Z,52.70
2023-02-16T06:44:12.205Z,52.30
2023-02-16T06:46:40.973Z,68.38
2023-02-16T06:49:11.848Z,54.97
2023-02-16T06:51:40.414Z,51.85
2023-02-16T06:54:10.041Z,55.50
2023-02-16T06:56:38.340Z,52.22
2023-02-16T06:59:07.096Z,56.28
2023-02-16T07:01:35.490Z,51.17
2023-02-16T07:04:03.587Z,51.10
2023-02-16T07:06:31.964Z,50.70
2023-02-16T07:09:01.479Z,54.92
2023-02-16T07:11:31.261Z,51.35
2023-02-16T07:13:59.472Z,46.75
2023-02-16T07:16:27.958Z,53.60
2023-02-16T07:18:55.989Z,47.78
2023-02-16T07:21:24.285Z,50.72
2023-02-16T07:23:52.709Z,50.92
2023-02-16T07:26:20.845Z,48.67
2023-02-16T07:28:50.561Z,56.05
2023-02-16T07:31:19.239Z,53.42
2023-02-16T07:33:47.476Z,51.22
2023-02-16T07:36:15.617Z,50.13
2023-02-16T07:38:44.097Z,48.28
2023-02-16T07:41:13.046Z,50.35
2023-02-16T07:43:42.779Z,54.00
2023-02-16T07:46:12.727Z,48.28
2023-02-16T07:48:40.884Z,48.35
2023-02-16T07:51:09.489Z,48.30
2023-02-16T07:53:37.924Z,56.10
2023-02-16T07:56:06.608Z,51.85
2023-02-16T07:58:34.863Z,51.38
2023-02-16T08:01:09.609Z,49.03
2023-02-16T08:03:39.832Z,54.15
2023-02-16T08:06:09.348Z,49.17
2023-02-16T08:08:38.683Z,50.30
2023-02-16T08:11:11.321Z,49.67
2023-02-16T08:13:39.985Z,49.15
2023-02-16T08:16:11.698Z,46.38
2023-02-16T08:18:41.927Z,44.65
2023-02-16T08:21:14.189Z,43.83
2023-02-16T08:23:43.696Z,45.10
2023-02-16T08:26:12.879Z,44.05
2023-02-16T08:28:46.189Z,47.22
2023-02-16T08:31:14.786Z,45.00
2023-02-16T08:33:45.064Z,50.55
2023-02-16T08:36:19.079Z,46.00
2023-02-16T08:38:50.099Z,47.83
2023-02-16T08:41:18.704Z,53.03
2023-02-16T08:43:49.386Z,46.33
2023-02-16T08:46:18.242Z,43.10
2023-02-16T08:48:47.988Z,45.17
2023-02-16T08:51:17.768Z,45.58
2023-02-16T08:53:46.640Z,44.80
2023-02-16T08:56:16.803Z,43.75
2023-02-16T08:58:45.604Z,47.17
2023-02-16T09:01:15.396Z,45.53
2023-02-16T09:03:46.125Z,47.30
2023-02-16T09:06:17.041Z,44.97
2023-02-16T09:08:46.505Z,44.20
2023-02-16T09:11:18.196Z,47.55
2023-02-16T09:13:46.773Z,42.45
2023-02-16T09:16:17.080Z,45.38
2023-02-16T09:18:46.070Z,43.88
2023-02-16T09:21:17.309Z,46.10
2023-02-16T09:23:48.210Z,45.53
2023-02-16T09:26:17.092Z,44.22
2023-02-16T09:28:45.841Z,44.22
2023-02-16T09:31:16.157Z,42.65
2023-02-16T09:33:45.403Z,43.47
2023-02-16T09:36:16.427Z,43.97
2023-02-16T09:38:44.809Z,46.50
2023-02-16T09:41:26.887Z,48.10
2023-02-16T09:43:59.679Z,45.50
2023-02-16T09:46:29.592Z,46.53
2023-02-16T09:48:58.758Z,43.92
2023-02-16T09:51:34.826Z,41.95
2023-02-16T09:54:17.020Z,43.92
2023-02-16T09:56:53.015Z,40.65
2023-02-16T09:59:35.616Z,44.00
2023-02-16T10:02:35.547Z,47.88
2023-02-16T10:05:20.156Z,40.22
2023-02-16T10:08:09.391Z,37.15
2023-02-16T10:10:48.189Z,45.00
2023-02-16T10:13:24.988Z,47.40
2023-02-16T10:15:55.158Z,38.67
2023-02-16T10:18:29.447Z,39.08
2023-02-16T10:21:03.837Z,40.85
2023-02-16T10:23:46.197Z,41.13
2023-02-16T10:26:19.770Z,39.05
2023-02-16T10:28:49.399Z,44.65
2023-02-16T10:31:23.650Z,41.40
2023-02-16T10:34:03.389Z,40.47
2023-02-16T10:39:42.585Z,40.17
2023-02-16T10:42:18.730Z,40.20
2023-02-16T10:44:52.336Z,38.63
2023-02-16T10:47:31.108Z,42.10
2023-02-16T10:49:59.719Z,38.03
2023-02-16T10:52:31.932Z,45.08
2023-02-16T10:55:02.475Z,43.65
2023-02-16T10:57:33.550Z,40.58
2023-02-16T11:00:06.914Z,38.50
2023-02-16T11:02:39.116Z,45.95
2023-02-16T11:05:32.328Z,44.72
2023-02-16T11:08:02.669Z,38.55
2023-02-16T11:10:48.929Z,46.72
2023-02-16T11:13:31.415Z,45.08
2023-02-16T11:16:02.914Z,47.95
2023-02-16T11:18:37.868Z,47.00
2023-02-16T11:21:08.258Z,41.53
2023-02-16T11:24:02.131Z,40.53
2023-02-16T11:26:31.784Z,38.70
2023-02-16T11:29:18.682Z,44.90
2023-02-16T11:31:47.465Z,44.45
2023-02-16T11:34:32.415Z,43.97
2023-02-16T11:37:10.246Z,43.65
2023-02-16T11:39:41.306Z,40.53
2023-02-16T11:42:22.300Z,38.08
2023-02-16T11:44:54.408Z,39.30
2023-02-16T11:47:26.302Z,39.58
2023-02-16T11:50:18.853Z,39.15
2023-02-16T11:52:49.574Z,45.15
2023-02-16T11:55:26.816Z,43.47
2023-02-16T11:57:57.253Z,42.63
2023-02-16T12:00:27.102Z,43.28
2023-02-16T12:03:43.761Z,40.72
2023-02-16T12:06:25.214Z,44.33
2023-02-16T12:09:07.855Z,45.28
2023-02-16T12:11:47.125Z,40.70
2023-02-16T12:14:32.394Z,43.47
2023-02-16T12:17:08.175Z,44.85
2023-02-16T12:19:42.046Z,44.40
2023-02-16T12:22:24.065Z,49.10
2023-02-16T12:25:03.838Z,46.92
2023-02-16T12:27:38.674Z,52.13
2023-02-16T12:30:26.960Z,51.97
2023-02-16T12:33:08.052Z,47.72
2023-02-16T12:36:06.785Z,50.15
2023-02-16T12:38:49.582Z,52.85
2023-02-16T12:41:26.787Z,53.00
2023-02-16T12:43:59.473Z,49.92
2023-02-16T12:46:33.948Z,51.95
2023-02-16T12:49:07.845Z,53.65
2023-02-16T12:51:40.316Z,52.25
2023-02-16T12:54:11.661Z,47.08
2023-02-16T12:56:44.441Z,52.33
2023-02-16T12:59:22.097Z,53.83
2023-02-16T13:01:56.039Z,51.65
2023-02-16T13:04:31.014Z,54.55
2023-02-16T13:07:06.403Z,53.38
2023-02-16T13:09:42.250Z,49.40
2023-02-16T13:12:22.500Z,56.33
2023-02-16T13:15:02.425Z,50.13
2023-02-16T13:17:38.160Z,51.85
2023-02-16T13:20:15.176Z,53.70
2023-02-16T13:23:26.319Z,48.28
2023-02-16T13:26:27.725Z,46.67
2023-02-16T13:29:23.174Z,49.25
2023-02-16T13:32:02.732Z,47.40
2023-02-16T13:34:57.059Z,48.60
2023-02-16T13:37:43.080Z,52.55
2023-02-16T13:40:31.731Z,49.20
2023-02-16T13:43:21.011Z,47.40
2023-02-16T13:48:41.059Z,51.50
2023-02-16T13:51:16.682Z,52.83
2023-02-16T13:53:52.970Z,53.45
2023-02-16T13:56:36.072Z,54.40
2023-02-16T13:59:58.577Z,52.28
2023-02-16T14:03:01.033Z,57.03
2023-02-16T14:05:33.697Z,56.67
2023-02-16T14:08:25.458Z,64.03
2023-02-16T14:11:09.751Z,56.10
2023-02-16T14:13:49.843Z,51.95
2023-02-16T14:16:34.737Z,57.75
2023-02-16T14:19:06.608Z,53.55
2023-02-16T14:21:39.945Z,57.10
2023-02-16T14:24:14.710Z,59.57
2023-02-16T14:26:55.173Z,59.70
2023-02-16T14:29:27.380Z,56.65
2023-02-16T14:32:01.909Z,57.20
2023-02-16T14:34:36.397Z,58.38
2023-02-16T14:37:30.422Z,57.88
2023-02-16T14:40:14.602Z,54.47
2023-02-16T14:42:58.283Z,59.22
2023-02-16T14:45:51.579Z,77.40
2023-02-16T14:48:42.974Z,112.35
2023-02-16T14:51:47.715Z,69.05
2023-02-16T14:54:51.560Z,78.85
2023-02-16T14:57:25.384Z,71.82
2023-02-16T14:59:59.816Z,69.03
2023-02-16T15:04:58.153Z,68.75
2023-02-16T15:07:29.308Z,81.15
2023-02-16T15:09:59.377Z,82.10
2023-02-16T15:12:41.204Z,73.00
2023-02-16T15:15:18.259Z,75.63
2023-02-16T15:17:48.270Z,75.95
2023-02-16T15:20:24.892Z,84.75
2023-02-16T15:22:55.257Z,89.32
2023-02-16T15:25:29.228Z,81.68
2023-02-16T15:28:01.421Z,84.78
2023-02-16T15:30:31.328Z,84.97
2023-02-16T15:33:02.631Z,79.32
2023-02-16T15:35:35.833Z,80.80
2023-02-16T15:38:10.732Z,86.60
2023-02-16T15:40:38.813Z,79.75
2023-02-16T15:43:16.610Z,82.75
2023-02-16T15:45:49.684Z,89.10
2023-02-16T15:48:24.982Z,84.05
2023-02-16T15:50:55.030Z,81.32
2023-02-16T15:53:37.391Z,78.50
2023-02-16T15:56:22.457Z,77.70
2023-02-16T15:58:53.109Z,74.75
2023-02-16T16:01:31.556Z,70.60
2023-02-16T16:04:02.864Z,74.32
2023-02-16T16:06:39.373Z,72.32
2023-02-16T16:09:08.612Z,72.57
2023-02-16T16:11:38.173Z,76.30
2023-02-16T16:14:08.546Z,74.55
2023-02-16T16:16:36.887Z,74.97
2023-02-16T16:19:09.610Z,77.63
2023-02-16T16:21:49.218Z,71.63
2023-02-16T16:24:34.957Z,76.05
2023-02-16T16:27:07.044Z,74.45
2023-02-16T16:29:41.100Z,78.72
2023-02-16T16:34:46.621Z,78.78
2023-02-16T16:37:27.992Z,80.70
2023-02-16T16:40:04.093Z,82.68
2023-02-16T16:42:34.013Z,76.80
2023-02-16T16:45:07.685Z,85.60
2023-02-16T16:47:40.225Z,75.57
2023-02-16T16:50:31.195Z,71.72
2023-02-16T16:52:59.518Z,84.88
2023-02-16T16:55:33.883Z,74.40
2023-02-16T16:58:05.335Z,75.93
2023-02-16T17:00:38.327Z,79.82
2023-02-16T17:03:08.901Z,94.22
2023-02-16T17:05:38.382Z,84.47
2023-02-16T17:08:06.884Z,81.38
2023-02-16T17:10:37.087Z,76.63
2023-02-16T17:13:05.303Z,80.45
2023-02-16T17:15:44.344Z,84.30
2023-02-16T17:18:16.900Z,81.25
2023-02-16T17:20:45.618Z,80.13
2023-02-16T17:23:14.415Z,81.68
2023-02-16T17:25:43.296Z,82.70
2023-02-16T17:28:13.337Z,86.40
2023-02-16T17:30:43.100Z,82.85
2023-02-16T17:33:11.952Z,86.47
2023-02-16T17:35:42.453Z,86.75
2023-02-16T17:38:12.777Z,80.13
2023-02-16T17:40:43.780Z,89.18
2023-02-16T17:43:13.703Z,86.07
2023-02-16T17:45:44.161Z,78.78
2023-02-16T17:48:17.191Z,84.38
2023-02-16T17:50:45.359Z,83.63
2023-02-16T17:53:14.753Z,80.65
2023-02-16T17:55:43.767Z,85.95
2023-02-16T17:58:12.046Z,78.35
2023-02-16T18:00:42.038Z,79.80
2023-02-16T18:03:10.741Z,81.57
2023-02-16T18:05:39.971Z,80.80
2023-02-16T18:08:08.506Z,81.40
2023-02-16T18:10:39.623Z,75.85
2023-02-16T18:13:09.512Z,80.65
2023-02-16T18:15:37.637Z,77.43
2023-02-16T18:18:07.761Z,74.60
2023-02-16T18:20:36.072Z,77.45
2023-02-16T18:23:04.632Z,75.97
2023-02-16T18:25:33.108Z,80.68
2023-02-16T18:28:01.657Z,81.47
2023-02-16T18:30:30.209Z,76.75
2023-02-16T18:32:58.526Z,76.40
2023-02-16T18:35:28.394Z,83.43
2023-02-16T18:37:56.484Z,78.55
2023-02-16T18:40:24.914Z,75.13
2023-02-16T18:42:53.338Z,76.40
2023-02-16T18:45:21.600Z,79.32
2023-02-16T18:47:50.075Z,73.47
2023-02-16T18:50:18.433Z,73.30
2023-02-16T18:52:47.894Z,76.75
2023-02-16T18:55:17.969Z,67.78
2023-02-16T18:57:46.131Z,71.60
2023-02-16T19:00:15.713Z,66.72
2023-02-16T19:02:44.344Z,75.88
2023-02-16T19:05:12.804Z,78.88
2023-02-16T19:07:41.708Z,73.93
2023-02-16T19:10:12.120Z,77.25
2023-02-16T19:12:40.940Z,74.72
2023-02-16T19:15:10.726Z,76.50
2023-02-16T19:17:39.520Z,78.13
2023-02-16T19:20:09.943Z,77.82
2023-02-16T19:22:38.191Z,80.35
2023-02-16T19:25:07.108Z,89.00
2023-02-16T19:27:36.794Z,87.72
2023-02-16T19:30:05.849Z,91.07
2023-02-16T19:32:34.313Z,85.57
2023-02-16T19:35:03.666Z,112.80
2023-02-16T19:37:31.864Z,96.38
2023-02-16T19:40:00.220Z,93.53
2023-02-16T19:42:28.422Z,93.30
2023-02-16T19:44:57.893Z,90.43
2023-02-16T19:47:26.120Z,88.82
2023-02-16T19:49:54.245Z,84.07
2023-02-16T19:52:22.374Z,83.95
2023-02-16T19:54:50.455Z,87.38
2023-02-16T19:57:18.743Z,94.88
2023-02-16T19:59:46.736Z,100.72
2023-02-16T20:02:16.511Z,105.25
2023-02-16T20:04:45.656Z,109.07
2023-02-16T20:07:13.921Z,111.28
2023-02-16T20:09:41.995Z,117.70
2023-02-16T20:12:10.291Z,112.60
2023-02-16T20:14:38.419Z,111.32
2023-02-16T20:17:06.516Z,122.40
2023-02-16T20:19:36.300Z,125.85
2023-02-16T20:22:04.471Z,120.88
2023-02-16T20:24:32.645Z,123.78
2023-02-16T20:27:04.314Z,124.53
2023-02-16T20:29:32.621Z,124.82
2023-02-16T20:32:00.978Z,129.00
2023-02-16T20:34:29.242Z,132.98
2023-02-16T20:36:58.814Z,129.55
2023-02-16T20:39:27.066Z,132.30
2023-02-16T20:41:55.178Z,140.32
2023-02-16T20:44:23.524Z,139.50
2023-02-16T20:46:52.218Z,146.88
2023-02-16T20:49:20.441Z,149.23
2023-02-16T20:51:48.633Z,145.10
2023-02-16T20:54:18.061Z,148.70
2023-02-16T20:56:46.256Z,155.90
2023-02-16T20:59:14.318Z,159.00
2023-02-16T21:01:46.467Z,154.95
2023-02-16T21:04:16.672Z,169.15
2023-02-16T21:06:44.972Z,159.30
2023-02-16T21:09:13.468Z,160.40
2023-02-16T21:11:43.741Z,164.77
2023-02-16T21:14:12.871Z,164.43
2023-02-16T21:16:41.772Z,167.88
2023-02-16T21:19:22.189Z,163.07
2023-02-16T21:21:51.425Z,168.98
2023-02-16T21:24:19.739Z,164.63
2023-02-16T21:26:49.514Z,169.63
2023-02-16T21:29:17.991Z,169.45
2023-02-16T21:31:46.200Z,181.23
2023-02-16T21:34:14.611Z,171.80
2023-02-16T21:36:43.022Z,175.45
2023-02-16T21:39:11.436Z,191.05
2023-02-16T21:41:38.709Z,182.82
2023-02-16T21:44:10.594Z,190.18
2023-02-16T21:46:40.534Z,196.07
2023-02-16T21:49:09.995Z,182.80
2023-02-16T21:51:39.627Z,191.57
2023-02-16T21:54:08.976Z,184.63
2023-02-16T21:56:39.099Z,178.60
2023-02-16T21:59:10.837Z,186.75
2023-02-16T22:01:42.312Z,170.48
2023-02-16T22:04:13.135Z,169.07
2023-02-16T22:06:43.037Z,172.43
2023-02-16T22:09:14.210Z,176.02
2023-02-16T22:11:42.835Z,170.75
2023-02-16T22:14:12.566Z,180.35
2023-02-16T22:16:41.136Z,175.50
2023-02-16T22:19:11.879Z,171.25
2023-02-16T22:21:42.572Z,166.80
2023-02-16T22:24:13.308Z,158.15
2023-02-16T22:26:41.720Z,166.73
2023-02-16T22:29:12.034Z,168.93
2023-02-16T22:31:44.420Z,161.77
2023-02-16T22:34:16.226Z,158.73
2023-02-16T22:36:44.498Z,171.68
2023-02-16T22:39:13.880Z,174.02
2023-02-16T22:41:42.431Z,181.05
2023-02-16T22:44:12.909Z,177.05
2023-02-16T22:46:41.076Z,169.65
2023-02-16T22:49:10.764Z,169.38
2023-02-16T22:51:39.137Z,174.55
2023-02-16T22:54:07.536Z,177.60
2023-02-16T22:56:36.573Z,174.35
2023-02-16T22:59:04.686Z,173.55
2023-02-16T23:01:34.225Z,168.15
2023-02-16T23:04:02.973Z,177.75
2023-02-16T23:06:32.654Z,178.32
2023-02-16T23:09:02.978Z,157.95
2023-02-16T23:11:31.356Z,157.52
2023-02-16T23:13:59.431Z,158.93
2023-02-16T23:16:29.409Z,152.60
2023-02-16T23:19:00.904Z,156.48
2023-02-16T23:21:31.944Z,163.50
2023-02-16T23:24:01.848Z,156.50
2023-02-16T23:26:32.086Z,148.43
2023-02-16T23:29:03.425Z,154.88
2023-02-16T23:31:35.846Z,146.60
2023-02-16T23:34:07.028Z,143.80
2023-02-16T23:36:36.917Z,141.90
2023-02-16T23:39:08.026Z,137.27
2023-02-16T23:41:36.151Z,141.52
2023-02-16T23:44:05.021Z,144.07
2023-02-16T23:46:33.407Z,136.40
2023-02-16T23:49:02.235Z,143.73
2023-02-16T23:51:32.073Z,142.55
2023-02-16T23:54:00.436Z,132.48
2023-02-16T23:56:29.692Z,128.15
2023-02-16T23:59:00.571Z,129.75
